sensor_id;sensor_type;location;lat;lon;timestamp;P1;durP1;ratioP1;P2;durP2;ratioP2
33794;SDS011;51430;52.242;21.118;2023-05-10T00:01:53;8.50;;;5.30;;
33794;SDS011;51430;52.242;21.118;2023-05-10T00:04:20;6.20;;;5.50;;
33794;SDS011;51430;52.242;21.118;2023-05-10T00:06:47;6.90;;;5.50;;
33794;SDS011;51430;52.242;21.118;2023-05-10T00:09:13;5.90;;;5.30;;
33794;SDS011;51430;52.242;21.118;2023-05-10T00:11:40;8.80;;;5.80;;
33794;SDS011;51430;52.242;21.118;2023-05-10T00:14:06;7.20;;;5.60;;
33794;SDS011;51430;52.242;21.118;2023-05-10T00:16:32;8.40;;;5.60;;
33794;SDS011;51430;52.242;21.118;2023-05-10T00:18:59;6.90;;;5.70;;
33794;SDS011;51430;52.242;21.118;2023-05-10T00:21:25;7.70;;;5.20;;
33794;SDS011;51430;52.242;21.118;2023-05-10T00:23:51;6.20;;;5.00;;
33794;SDS011;51430;52.242;21.118;2023-05-10T00:26:18;7.30;;;5.00;;
33794;SDS011;51430;52.242;21.118;2023-05-10T00:28:44;6.00;;;5.00;;
33794;SDS011;51430;52.242;21.118;2023-05-10T00:31:10;8.60;;;5.00;;
33794;SDS011;51430;52.242;21.118;2023-05-10T00:33:37;5.60;;;4.80;;
33794;SDS011;51430;52.242;21.118;2023-05-10T00:36:03;6.20;;;5.20;;
33794;SDS011;51430;52.242;21.118;2023-05-10T00:38:30;6.00;;;4.80;;
33794;SDS011;51430;52.242;21.118;2023-05-10T00:40:56;7.10;;;4.80;;
33794;SDS011;51430;52.242;21.118;2023-05-10T00:43:22;5.60;;;4.70;;
33794;SDS011;51430;52.242;21.118;2023-05-10T00:45:48;6.00;;;4.90;;
33794;SDS011;51430;52.242;21.118;2023-05-10T00:48:15;6.60;;;4.70;;
33794;SDS011;51430;52.242;21.118;2023-05-10T00:50:42;6.20;;;4.60;;
33794;SDS011;51430;52.242;21.118;2023-05-10T00:53:08;5.90;;;4.80;;
33794;SDS011;51430;52.242;21.118;2023-05-10T00:55:35;6.60;;;5.10;;
33794;SDS011;51430;52.242;21.118;2023-05-10T00:58:02;5.70;;;4.70;;
33794;SDS011;51430;52.242;21.118;2023-05-10T01:00:28;7.10;;;4.60;;
33794;SDS011;51430;52.242;21.118;2023-05-10T01:02:55;6.70;;;4.80;;
33794;SDS011;51430;52.242;21.118;2023-05-10T01:05:22;7.10;;;4.60;;
33794;SDS011;51430;52.242;21.118;2023-05-10T01:07:48;6.20;;;4.60;;
33794;SDS011;51430;52.242;21.118;2023-05-10T01:10:14;5.70;;;4.80;;
33794;SDS011;51430;52.242;21.118;2023-05-10T01:12:42;6.30;;;4.90;;
33794;SDS011;51430;52.242;21.118;2023-05-10T01:15:11;7.00;;;5.10;;
33794;SDS011;51430;52.242;21.118;2023-05-10T01:17:39;6.00;;;4.60;;
33794;SDS011;51430;52.242;21.118;2023-05-10T01:20:08;7.30;;;4.80;;
33794;SDS011;51430;52.242;21.118;2023-05-10T01:25:07;8.50;;;4.90;;
33794;SDS011;51430;52.242;21.118;2023-05-10T01:27:42;7.20;;;4.80;;
33794;SDS011;51430;52.242;21.118;2023-05-10T01:35:51;6.90;;;4.70;;
33794;SDS011;51430;52.242;21.118;2023-05-10T01:38:38;5.60;;;4.40;;
33794;SDS011;51430;52.242;21.118;2023-05-10T01:41:28;7.00;;;4.80;;
33794;SDS011;51430;52.242;21.118;2023-05-10T01:44:10;5.90;;;4.40;;
33794;SDS011;51430;52.242;21.118;2023-05-10T01:46:38;5.80;;;4.40;;
33794;SDS011;51430;52.242;21.118;2023-05-10T01:49:11;7.60;;;4.60;;
33794;SDS011;51430;52.242;21.118;2023-05-10T01:51:48;7.10;;;4.70;;
33794;SDS011;51430;52.242;21.118;2023-05-10T01:54:19;5.50;;;4.40;;
33794;SDS011;51430;52.242;21.118;2023-05-10T01:56:48;6.20;;;4.60;;
33794;SDS011;51430;52.242;21.118;2023-05-10T01:59:19;7.20;;;4.40;;
33794;SDS011;51430;52.242;21.118;2023-05-10T02:01:46;6.10;;;4.30;;
33794;SDS011;51430;52.242;21.118;2023-05-10T02:04:15;4.90;;;4.30;;
33794;SDS011;51430;52.242;21.118;2023-05-10T02:06:43;6.20;;;4.30;;
33794;SDS011;51430;52.242;21.118;2023-05-10T02:09:12;6.00;;;4.50;;
33794;SDS011;51430;52.242;21.118;2023-05-10T02:11:41;5.40;;;4.70;;
33794;SDS011;51430;52.242;21.118;2023-05-10T02:14:09;5.00;;;4.40;;
33794;SDS011;51430;52.242;21.118;2023-05-10T02:16:37;6.80;;;4.20;;
33794;SDS011;51430;52.242;21.118;2023-05-10T02:19:05;5.60;;;4.60;;
33794;SDS011;51430;52.242;21.118;2023-05-10T02:21:34;6.10;;;4.40;;
33794;SDS011;51430;52.242;21.118;2023-05-10T02:24:04;6.40;;;4.20;;
33794;SDS011;51430;52.242;21.118;2023-05-10T02:26:32;5.90;;;4.60;;
33794;SDS011;51430;52.242;21.118;2023-05-10T02:29:01;5.60;;;4.30;;
33794;SDS011;51430;52.242;21.118;2023-05-10T02:31:32;7.70;;;4.60;;
33794;SDS011;51430;52.242;21.118;2023-05-10T02:34:01;6.40;;;4.50;;
33794;SDS011;51430;52.242;21.118;2023-05-10T02:36:29;6.30;;;4.40;;
33794;SDS011;51430;52.242;21.118;2023-05-10T02:38:55;5.50;;;4.20;;
33794;SDS011;51430;52.242;21.118;2023-05-10T02:41:23;6.30;;;4.80;;
33794;SDS011;51430;52.242;21.118;2023-05-10T02:43:52;5.10;;;4.50;;
33794;SDS011;51430;52.242;21.118;2023-05-10T02:46:23;7.50;;;4.60;;
33794;SDS011;51430;52.242;21.118;2023-05-10T02:48:49;5.30;;;4.70;;
33794;SDS011;51430;52.242;21.118;2023-05-10T02:51:16;7.60;;;4.70;;
33794;SDS011;51430;52.242;21.118;2023-05-10T02:53:44;5.50;;;4.80;;
33794;SDS011;51430;52.242;21.118;2023-05-10T02:56:15;9.00;;;5.00;;
33794;SDS011;51430;52.242;21.118;2023-05-10T02:58:51;6.90;;;4.70;;
33794;SDS011;51430;52.242;21.118;2023-05-10T03:01:18;6.20;;;4.70;;
33794;SDS011;51430;52.242;21.118;2023-05-10T03:03:45;6.30;;;4.80;;
33794;SDS011;51430;52.242;21.118;2023-05-10T03:06:11;7.00;;;4.80;;
33794;SDS011;51430;52.242;21.118;2023-05-10T03:08:37;6.40;;;4.80;;
33794;SDS011;51430;52.242;21.118;2023-05-10T03:16:51;8.30;;;5.00;;
33794;SDS011;51430;52.242;21.118;2023-05-10T03:19:24;9.30;;;5.20;;
33794;SDS011;51430;52.242;21.118;2023-05-10T03:21:57;6.40;;;4.90;;
33794;SDS011;51430;52.242;21.118;2023-05-10T03:24:26;6.50;;;4.70;;
33794;SDS011;51430;52.242;21.118;2023-05-10T03:26:54;7.30;;;4.90;;
33794;SDS011;51430;52.242;21.118;2023-05-10T03:29:22;6.10;;;4.90;;
33794;SDS011;51430;52.242;21.118;2023-05-10T03:31:52;8.80;;;5.10;;
33794;SDS011;51430;52.242;21.118;2023-05-10T03:34:23;7.00;;;5.20;;
33794;SDS011;51430;52.242;21.118;2023-05-10T03:36:50;7.20;;;5.00;;
33794;SDS011;51430;52.242;21.118;2023-05-10T03:39:17;6.10;;;5.00;;
33794;SDS011;51430;52.242;21.118;2023-05-10T03:41:43;6.70;;;4.70;;
33794;SDS011;51430;52.242;21.118;2023-05-10T03:44:10;8.60;;;5.00;;
33794;SDS011;51430;52.242;21.118;2023-05-10T03:46:36;6.60;;;4.80;;
33794;SDS011;51430;52.242;21.118;2023-05-10T03:49:02;7.90;;;4.60;;
33794;SDS011;51430;52.242;21.118;2023-05-10T03:51:29;7.00;;;5.10;;
33794;SDS011;51430;52.242;21.118;2023-05-10T03:53:57;5.30;;;4.50;;
33794;SDS011;51430;52.242;21.118;2023-05-10T03:56:23;6.60;;;4.70;;
33794;SDS011;51430;52.242;21.118;2023-05-10T03:58:49;7.30;;;4.70;;
33794;SDS011;51430;52.242;21.118;2023-05-10T04:01:16;6.90;;;4.90;;
33794;SDS011;51430;52.242;21.118;2023-05-10T04:03:42;6.20;;;4.80;;
33794;SDS011;51430;52.242;21.118;2023-05-10T04:06:08;5.70;;;4.50;;
33794;SDS011;51430;52.242;21.118;2023-05-10T04:08:37;5.80;;;4.20;;
33794;SDS011;51430;52.242;21.118;2023-05-10T04:11:04;7.60;;;4.50;;
33794;SDS011;51430;52.242;21.118;2023-05-10T04:13:32;5.90;;;4.60;;
33794;SDS011;51430;52.242;21.118;2023-05-10T04:15:58;6.10;;;4.50;;
33794;SDS011;51430;52.242;21.118;2023-05-10T04:18:25;6.90;;;5.00;;
33794;SDS011;51430;52.242;21.118;2023-05-10T04:20:51;6.90;;;4.50;;
33794;SDS011;51430;52.242;21.118;2023-05-10T04:23:18;7.00;;;4.80;;
33794;SDS011;51430;52.242;21.118;2023-05-10T04:25:44;5.90;;;4.40;;
33794;SDS011;51430;52.242;21.118;2023-05-10T04:28:10;7.00;;;4.60;;
33794;SDS011;51430;52.242;21.118;2023-05-10T04:30:36;5.50;;;4.50;;
33794;SDS011;51430;52.242;21.118;2023-05-10T04:33:03;6.50;;;4.30;;
33794;SDS011;51430;52.242;21.118;2023-05-10T04:35:30;6.70;;;4.40;;
33794;SDS011;51430;52.242;21.118;2023-05-10T04:37:56;5.40;;;4.10;;
33794;SDS011;51430;52.242;21.118;2023-05-10T04:40:22;5.80;;;4.20;;
33794;SDS011;51430;52.242;21.118;2023-05-10T04:42:49;4.70;;;4.30;;
33794;SDS011;51430;52.242;21.118;2023-05-10T04:45:15;6.90;;;4.30;;
33794;SDS011;51430;52.242;21.118;2023-05-10T04:47:41;7.20;;;4.20;;
33794;SDS011;51430;52.242;21.118;2023-05-10T04:50:08;7.30;;;4.20;;
33794;SDS011;51430;52.242;21.118;2023-05-10T04:52:35;8.50;;;4.10;;
33794;SDS011;51430;52.242;21.118;2023-05-10T04:55:02;6.50;;;4.20;;
33794;SDS011;51430;52.242;21.118;2023-05-10T04:57:37;5.40;;;4.40;;
33794;SDS011;51430;52.242;21.118;2023-05-10T05:00:03;6.30;;;4.10;;
33794;SDS011;51430;52.242;21.118;2023-05-10T05:02:30;5.10;;;3.90;;
33794;SDS011;51430;52.242;21.118;2023-05-10T05:04:57;5.90;;;3.90;;
33794;SDS011;51430;52.242;21.118;2023-05-10T05:07:26;7.40;;;3.90;;
33794;SDS011;51430;52.242;21.118;2023-05-10T05:09:52;5.90;;;4.00;;
33794;SDS011;51430;52.242;21.118;2023-05-10T05:12:19;7.20;;;4.10;;
33794;SDS011;51430;52.242;21.118;2023-05-10T05:14:45;5.40;;;3.80;;
33794;SDS011;51430;52.242;21.118;2023-05-10T05:17:12;6.50;;;3.90;;
33794;SDS011;51430;52.242;21.118;2023-05-10T05:19:38;5.50;;;3.80;;
33794;SDS011;51430;52.242;21.118;2023-05-10T05:22:06;5.80;;;3.90;;
33794;SDS011;51430;52.242;21.118;2023-05-10T05:24:37;7.10;;;3.80;;
33794;SDS011;51430;52.242;21.118;2023-05-10T05:27:04;5.20;;;3.80;;
33794;SDS011;51430;52.242;21.118;2023-05-10T05:29:31;8.90;;;4.00;;
33794;SDS011;51430;52.242;21.118;2023-05-10T05:31:58;7.70;;;3.70;;
33794;SDS011;51430;52.242;21.118;2023-05-10T05:34:24;4.80;;;3.50;;
33794;SDS011;51430;52.242;21.118;2023-05-10T05:36:51;6.70;;;4.00;;
33794;SDS011;51430;52.242;21.118;2023-05-10T05:39:18;8.00;;;3.90;;
33794;SDS011;51430;52.242;21.118;2023-05-10T05:41:44;5.70;;;3.70;;
33794;SDS011;51430;52.242;21.118;2023-05-10T05:44:12;9.20;;;3.90;;
33794;SDS011;51430;52.242;21.118;2023-05-10T05:46:38;6.90;;;3.70;;
33794;SDS011;51430;52.242;21.118;2023-05-10T05:49:04;5.10;;;3.80;;
33794;SDS011;51430;52.242;21.118;2023-05-10T05:51:30;7.10;;;4.00;;
33794;SDS011;51430;52.242;21.118;2023-05-10T05:53:57;5.40;;;3.60;;
33794;SDS011;51430;52.242;21.118;2023-05-10T05:56:24;6.30;;;3.50;;
33794;SDS011;51430;52.242;21.118;2023-05-10T05:58:50;6.70;;;3.50;;
33794;SDS011;51430;52.242;21.118;2023-05-10T06:01:17;9.70;;;3.50;;
33794;SDS011;51430;52.242;21.118;2023-05-10T06:03:43;5.60;;;3.20;;
33794;SDS011;51430;52.242;21.118;2023-05-10T06:06:09;6.70;;;3.40;;
33794;SDS011;51430;52.242;21.118;2023-05-10T06:08:36;6.30;;;3.50;;
33794;SDS011;51430;52.242;21.118;2023-05-10T06:11:02;6.40;;;3.40;;
33794;SDS011;51430;52.242;21.118;2023-05-10T06:13:30;6.00;;;3.40;;
33794;SDS011;51430;52.242;21.118;2023-05-10T06:15:58;9.10;;;3.80;;
33794;SDS011;51430;52.242;21.118;2023-05-10T06:18:24;8.70;;;3.60;;
33794;SDS011;51430;52.242;21.118;2023-05-10T06:20:51;7.10;;;3.60;;
33794;SDS011;51430;52.242;21.118;2023-05-10T06:23:18;6.50;;;3.30;;
33794;SDS011;51430;52.242;21.118;2023-05-10T06:25:44;8.80;;;3.30;;
33794;SDS011;51430;52.242;21.118;2023-05-10T06:28:10;5.90;;;3.20;;
33794;SDS011;51430;52.242;21.118;2023-05-10T06:30:37;10.20;;;3.70;;
33794;SDS011;51430;52.242;21.118;2023-05-10T06:33:03;8.10;;;4.30;;
33794;SDS011;51430;52.242;21.118;2023-05-10T06:35:29;7.20;;;3.50;;
33794;SDS011;51430;52.242;21.118;2023-05-10T06:37:58;5.10;;;3.50;;
33794;SDS011;51430;52.242;21.118;2023-05-10T06:40:24;6.00;;;3.70;;
33794;SDS011;51430;52.242;21.118;2023-05-10T06:42:50;9.00;;;4.60;;
33794;SDS011;51430;52.242;21.118;2023-05-10T06:45:17;6.60;;;3.10;;
33794;SDS011;51430;52.242;21.118;2023-05-10T06:47:43;7.00;;;3.00;;
33794;SDS011;51430;52.242;21.118;2023-05-10T06:50:10;9.80;;;3.50;;
33794;SDS011;51430;52.242;21.118;2023-05-10T06:52:40;5.60;;;3.00;;
33794;SDS011;51430;52.242;21.118;2023-05-10T06:55:06;5.20;;;2.30;;
33794;SDS011;51430;52.242;21.118;2023-05-10T06:57:34;4.30;;;2.80;;
33794;SDS011;51430;52.242;21.118;2023-05-10T07:00:00;6.10;;;2.60;;
33794;SDS011;51430;52.242;21.118;2023-05-10T07:02:27;10.30;;;3.00;;
33794;SDS011;51430;52.242;21.118;2023-05-10T07:04:54;10.80;;;3.10;;
33794;SDS011;51430;52.242;21.118;2023-05-10T07:07:20;3.90;;;2.70;;
33794;SDS011;51430;52.242;21.118;2023-05-10T07:09:47;8.40;;;2.70;;
33794;SDS011;51430;52.242;21.118;2023-05-10T07:12:13;4.50;;;2.60;;
33794;SDS011;51430;52.242;21.118;2023-05-10T07:14:41;7.10;;;2.70;;
33794;SDS011;51430;52.242;21.118;2023-05-10T07:17:08;5.90;;;2.70;;
33794;SDS011;51430;52.242;21.118;2023-05-10T07:19:35;3.40;;;2.30;;
33794;SDS011;51430;52.242;21.118;2023-05-10T07:22:02;3.70;;;2.20;;
33794;SDS011;51430;52.242;21.118;2023-05-10T07:24:28;5.20;;;2.20;;
33794;SDS011;51430;52.242;21.118;2023-05-10T07:26:55;5.20;;;2.20;;
33794;SDS011;51430;52.242;21.118;2023-05-10T07:29:21;3.60;;;2.20;;
33794;SDS011;51430;52.242;21.118;2023-05-10T07:31:47;6.20;;;2.60;;
33794;SDS011;51430;52.242;21.118;2023-05-10T07:34:14;6.00;;;2.50;;
33794;SDS011;51430;52.242;21.118;2023-05-10T07:36:40;6.00;;;2.10;;
33794;SDS011;51430;52.242;21.118;2023-05-10T07:39:06;4.40;;;2.10;;
33794;SDS011;51430;52.242;21.118;2023-05-10T07:41:33;6.60;;;2.30;;
33794;SDS011;51430;52.242;21.118;2023-05-10T07:44:01;4.80;;;2.30;;
33794;SDS011;51430;52.242;21.118;2023-05-10T07:46:27;4.10;;;2.10;;
33794;SDS011;51430;52.242;21.118;2023-05-10T07:48:54;4.80;;;1.90;;
33794;SDS011;51430;52.242;21.118;2023-05-10T07:51:21;3.70;;;2.20;;
33794;SDS011;51430;52.242;21.118;2023-05-10T07:53:47;10.00;;;2.50;;
33794;SDS011;51430;52.242;21.118;2023-05-10T07:56:21;5.20;;;2.30;;
33794;SDS011;51430;52.242;21.118;2023-05-10T07:58:53;4.90;;;2.40;;
33794;SDS011;51430;52.242;21.118;2023-05-10T08:01:20;3.80;;;1.90;;
33794;SDS011;51430;52.242;21.118;2023-05-10T08:03:46;5.00;;;2.00;;
33794;SDS011;51430;52.242;21.118;2023-05-10T08:06:14;9.80;;;2.80;;
33794;SDS011;51430;52.242;21.118;2023-05-10T08:08:41;7.90;;;2.30;;
33794;SDS011;51430;52.242;21.118;2023-05-10T08:11:08;6.00;;;2.20;;
33794;SDS011;51430;52.242;21.118;2023-05-10T08:13:35;3.70;;;2.10;;
33794;SDS011;51430;52.242;21.118;2023-05-10T08:16:01;5.00;;;2.20;;
33794;SDS011;51430;52.242;21.118;2023-05-10T08:18:28;4.10;;;2.20;;
33794;SDS011;51430;52.242;21.118;2023-05-10T08:20:55;4.20;;;2.30;;
33794;SDS011;51430;52.242;21.118;2023-05-10T08:23:21;4.10;;;2.00;;
33794;SDS011;51430;52.242;21.118;2023-05-10T08:25:48;3.80;;;2.00;;
33794;SDS011;51430;52.242;21.118;2023-05-10T08:28:14;5.20;;;2.40;;
33794;SDS011;51430;52.242;21.118;2023-05-10T08:30:41;9.00;;;2.60;;
33794;SDS011;51430;52.242;21.118;2023-05-10T08:33:07;4.00;;;2.10;;
33794;SDS011;51430;52.242;21.118;2023-05-10T08:35:34;4.50;;;2.20;;
33794;SDS011;51430;52.242;21.118;2023-05-10T08:38:01;3.20;;;2.10;;
33794;SDS011;51430;52.242;21.118;2023-05-10T08:40:27;5.10;;;2.10;;
33794;SDS011;51430;52.242;21.118;2023-05-10T08:42:55;2.60;;;2.10;;
33794;SDS011;51430;52.242;21.118;2023-05-10T08:45:28;4.40;;;2.00;;
33794;SDS011;51430;52.242;21.118;2023-05-10T08:47:59;4.70;;;2.00;;
33794;SDS011;51430;52.242;21.118;2023-05-10T08:50:27;4.10;;;2.00;;
33794;SDS011;51430;52.242;21.118;2023-05-10T08:52:55;4.60;;;2.20;;
33794;SDS011;51430;52.242;21.118;2023-05-10T08:55:25;8.70;;;2.30;;
33794;SDS011;51430;52.242;21.118;2023-05-10T08:57:51;7.40;;;2.20;;
33794;SDS011;51430;52.242;21.118;2023-05-10T09:00:18;3.90;;;2.00;;
33794;SDS011;51430;52.242;21.118;2023-05-10T09:02:45;5.70;;;2.30;;
33794;SDS011;51430;52.242;21.118;2023-05-10T09:05:15;6.30;;;2.30;;
33794;SDS011;51430;52.242;21.118;2023-05-10T09:07:44;4.50;;;1.90;;
33794;SDS011;51430;52.242;21.118;2023-05-10T09:10:10;3.20;;;2.20;;
33794;SDS011;51430;52.242;21.118;2023-05-10T09:12:37;4.90;;;2.10;;
33794;SDS011;51430;52.242;21.118;2023-05-10T09:15:05;6.70;;;2.00;;
33794;SDS011;51430;52.242;21.118;2023-05-10T09:17:32;3.30;;;2.20;;
33794;SDS011;51430;52.242;21.118;2023-05-10T09:20:00;5.80;;;2.20;;
33794;SDS011;51430;52.242;21.118;2023-05-10T09:22:27;6.10;;;2.30;;
33794;SDS011;51430;52.242;21.118;2023-05-10T09:25:03;3.80;;;2.30;;
33794;SDS011;51430;52.242;21.118;2023-05-10T09:27:30;4.00;;;1.90;;
33794;SDS011;51430;52.242;21.118;2023-05-10T09:29:57;5.30;;;2.00;;
33794;SDS011;51430;52.242;21.118;2023-05-10T09:32:39;6.80;;;2.10;;
33794;SDS011;51430;52.242;21.118;2023-05-10T09:35:08;4.80;;;2.10;;
33794;SDS011;51430;52.242;21.118;2023-05-10T09:37:36;3.20;;;1.90;;
33794;SDS011;51430;52.242;21.118;2023-05-10T09:40:05;4.70;;;2.00;;
33794;SDS011;51430;52.242;21.118;2023-05-10T09:42:34;3.30;;;2.10;;
33794;SDS011;51430;52.242;21.118;2023-05-10T09:45:02;3.40;;;2.00;;
33794;SDS011;51430;52.242;21.118;2023-05-10T09:47:32;3.00;;;2.10;;
33794;SDS011;51430;52.242;21.118;2023-05-10T09:50:00;3.40;;;1.90;;
33794;SDS011;51430;52.242;21.118;2023-05-10T09:52:30;4.80;;;1.80;;
33794;SDS011;51430;52.242;21.118;2023-05-10T09:55:06;3.50;;;2.20;;
33794;SDS011;51430;52.242;21.118;2023-05-10T09:57:33;4.50;;;1.90;;
33794;SDS011;51430;52.242;21.118;2023-05-10T10:00:01;3.90;;;2.00;;
33794;SDS011;51430;52.242;21.118;2023-05-10T10:02:29;4.20;;;1.90;;
33794;SDS011;51430;52.242;21.118;2023-05-10T10:04:57;6.10;;;2.00;;
33794;SDS011;51430;52.242;21.118;2023-05-10T10:07:24;2.80;;;2.00;;
33794;SDS011;51430;52.242;21.118;2023-05-10T10:09:51;4.60;;;2.30;;
33794;SDS011;51430;52.242;21.118;2023-05-10T10:12:18;3.90;;;1.90;;
33794;SDS011;51430;52.242;21.118;2023-05-10T10:14:46;5.50;;;2.20;;
33794;SDS011;51430;52.242;21.118;2023-05-10T10:17:16;5.60;;;2.00;;
33794;SDS011;51430;52.242;21.118;2023-05-10T10:19:44;4.70;;;2.10;;
33794;SDS011;51430;52.242;21.118;2023-05-10T10:22:16;3.40;;;2.00;;
33794;SDS011;51430;52.242;21.118;2023-05-10T10:24:43;7.70;;;2.40;;
33794;SDS011;51430;52.242;21.118;2023-05-10T10:27:26;4.00;;;2.00;;
33794;SDS011;51430;52.242;21.118;2023-05-10T10:30:09;5.70;;;2.00;;
33794;SDS011;51430;52.242;21.118;2023-05-10T10:35:54;3.50;;;1.90;;
33794;SDS011;51430;52.242;21.118;2023-05-10T10:38:23;2.90;;;1.80;;
33794;SDS011;51430;52.242;21.118;2023-05-10T10:41:08;3.90;;;1.90;;
33794;SDS011;51430;52.242;21.118;2023-05-10T10:43:36;5.50;;;2.10;;
33794;SDS011;51430;52.242;21.118;2023-05-10T10:48:49;6.80;;;2.20;;
33794;SDS011;51430;52.242;21.118;2023-05-10T10:51:37;7.30;;;1.90;;
33794;SDS011;51430;52.242;21.118;2023-05-10T10:54:10;5.20;;;2.10;;
33794;SDS011;51430;52.242;21.118;2023-05-10T10:56:37;6.20;;;2.30;;
33794;SDS011;51430;52.242;21.118;2023-05-10T10:59:04;6.10;;;2.10;;
33794;SDS011;51430;52.242;21.118;2023-05-10T11:01:34;6.10;;;2.10;;
33794;SDS011;51430;52.242;21.118;2023-05-10T11:06:31;4.50;;;2.20;;
33794;SDS011;51430;52.242;21.118;2023-05-10T11:09:06;5.00;;;2.20;;
33794;SDS011;51430;52.242;21.118;2023-05-10T11:11:35;5.00;;;2.20;;
33794;SDS011;51430;52.242;21.118;2023-05-10T11:14:05;5.30;;;2.10;;
33794;SDS011;51430;52.242;21.118;2023-05-10T11:16:42;7.40;;;2.30;;
33794;SDS011;51430;52.242;21.118;2023-05-10T11:19:11;6.00;;;2.30;;
33794;SDS011;51430;52.242;21.118;2023-05-10T11:24:15;3.20;;;2.10;;
33794;SDS011;51430;52.242;21.118;2023-05-10T11:26:44;5.30;;;2.30;;
33794;SDS011;51430;52.242;21.118;2023-05-10T11:29:11;6.50;;;2.30;;
33794;SDS011;51430;52.242;21.118;2023-05-10T11:31:42;4.30;;;1.90;;
33794;SDS011;51430;52.242;21.118;2023-05-10T11:34:09;8.70;;;2.30;;
33794;SDS011;51430;52.242;21.118;2023-05-10T11:36:36;6.50;;;2.30;;
33794;SDS011;51430;52.242;21.118;2023-05-10T11:39:03;5.70;;;2.10;;
33794;SDS011;51430;52.242;21.118;2023-05-10T11:41:30;3.50;;;2.00;;
33794;SDS011;51430;52.242;21.118;2023-05-10T11:43:58;7.50;;;2.30;;
33794;SDS011;51430;52.242;21.118;2023-05-10T11:46:25;4.30;;;2.40;;
33794;SDS011;51430;52.242;21.118;2023-05-10T11:48:58;5.40;;;2.10;;
33794;SDS011;51430;52.242;21.118;2023-05-10T11:51:27;6.00;;;2.30;;
33794;SDS011;51430;52.242;21.118;2023-05-10T11:53:54;5.90;;;2.30;;
33794;SDS011;51430;52.242;21.118;2023-05-10T11:56:22;6.20;;;2.00;;
33794;SDS011;51430;52.242;21.118;2023-05-10T11:58:53;5.40;;;2.30;;
33794;SDS011;51430;52.242;21.118;2023-05-10T12:01:21;5.50;;;2.30;;
33794;SDS011;51430;52.242;21.118;2023-05-10T12:03:49;6.00;;;2.30;;
33794;SDS011;51430;52.242;21.118;2023-05-10T12:06:17;5.30;;;2.10;;
33794;SDS011;51430;52.242;21.118;2023-05-10T12:08:45;6.30;;;2.10;;
33794;SDS011;51430;52.242;21.118;2023-05-10T12:11:12;7.40;;;2.60;;
33794;SDS011;51430;52.242;21.118;2023-05-10T12:13:42;7.10;;;2.30;;
33794;SDS011;51430;52.242;21.118;2023-05-10T12:16:33;4.10;;;2.10;;
33794;SDS011;51430;52.242;21.118;2023-05-10T12:18:59;4.80;;;2.20;;
33794;SDS011;51430;52.242;21.118;2023-05-10T12:21:27;5.60;;;2.40;;
33794;SDS011;51430;52.242;21.118;2023-05-10T12:23:58;5.90;;;2.30;;
33794;SDS011;51430;52.242;21.118;2023-05-10T12:26:27;6.30;;;2.50;;
33794;SDS011;51430;52.242;21.118;2023-05-10T12:29:00;4.40;;;2.20;;
33794;SDS011;51430;52.242;21.118;2023-05-10T12:34:37;6.30;;;2.30;;
33794;SDS011;51430;52.242;21.118;2023-05-10T12:37:04;6.90;;;2.40;;
33794;SDS011;51430;52.242;21.118;2023-05-10T12:39:38;3.60;;;2.00;;
33794;SDS011;51430;52.242;21.118;2023-05-10T12:42:08;3.20;;;2.20;;
33794;SDS011;51430;52.242;21.118;2023-05-10T12:44:35;4.10;;;2.30;;
33794;SDS011;51430;52.242;21.118;2023-05-10T12:47:02;4.80;;;2.20;;
33794;SDS011;51430;52.242;21.118;2023-05-10T12:49:28;4.60;;;2.00;;
33794;SDS011;51430;52.242;21.118;2023-05-10T12:51:55;4.90;;;2.00;;
33794;SDS011;51430;52.242;21.118;2023-05-10T12:54:21;1.90;;;1.70;;
33794;SDS011;51430;52.242;21.118;2023-05-10T12:56:47;5.20;;;2.00;;
33794;SDS011;51430;52.242;21.118;2023-05-10T12:59:14;5.10;;;2.20;;
33794;SDS011;51430;52.242;21.118;2023-05-10T13:01:40;5.30;;;1.90;;
33794;SDS011;51430;52.242;21.118;2023-05-10T13:04:07;4.00;;;2.10;;
33794;SDS011;51430;52.242;21.118;2023-05-10T13:06:33;5.20;;;2.20;;
33794;SDS011;51430;52.242;21.118;2023-05-10T13:09:01;4.80;;;2.40;;
33794;SDS011;51430;52.242;21.118;2023-05-10T13:11:27;4.60;;;2.30;;
33794;SDS011;51430;52.242;21.118;2023-05-10T13:13:53;4.90;;;2.20;;
33794;SDS011;51430;52.242;21.118;2023-05-10T13:16:20;4.80;;;2.20;;
33794;SDS011;51430;52.242;21.118;2023-05-10T13:18:46;4.80;;;2.40;;
33794;SDS011;51430;52.242;21.118;2023-05-10T13:21:12;4.90;;;2.40;;
33794;SDS011;51430;52.242;21.118;2023-05-10T13:23:39;5.00;;;2.40;;
33794;SDS011;51430;52.242;21.118;2023-05-10T13:26:05;4.30;;;2.30;;
33794;SDS011;51430;52.242;21.118;2023-05-10T13:28:31;5.60;;;2.30;;
33794;SDS011;51430;52.242;21.118;2023-05-10T13:30:58;5.30;;;2.20;;
33794;SDS011;51430;52.242;21.118;2023-05-10T13:33:26;6.40;;;2.20;;
33794;SDS011;51430;52.242;21.118;2023-05-10T13:35:52;5.80;;;2.10;;
33794;SDS011;51430;52.242;21.118;2023-05-10T13:38:21;8.30;;;2.60;;
33794;SDS011;51430;52.242;21.118;2023-05-10T13:40:48;5.40;;;2.10;;
33794;SDS011;51430;52.242;21.118;2023-05-10T13:43:18;2.80;;;2.00;;
33794;SDS011;51430;52.242;21.118;2023-05-10T13:45:45;5.30;;;2.00;;
33794;SDS011;51430;52.242;21.118;2023-05-10T13:48:11;6.40;;;1.90;;
33794;SDS011;51430;52.242;21.118;2023-05-10T13:50:38;3.50;;;2.00;;
33794;SDS011;51430;52.242;21.118;2023-05-10T13:53:04;7.10;;;1.90;;
33794;SDS011;51430;52.242;21.118;2023-05-10T13:55:31;4.50;;;2.00;;
33794;SDS011;51430;52.242;21.118;2023-05-10T13:57:57;5.60;;;1.90;;
33794;SDS011;51430;52.242;21.118;2023-05-10T14:00:24;7.30;;;2.00;;
33794;SDS011;51430;52.242;21.118;2023-05-10T14:02:50;3.60;;;1.80;;
33794;SDS011;51430;52.242;21.118;2023-05-10T14:05:17;4.20;;;2.00;;
33794;SDS011;51430;52.242;21.118;2023-05-10T14:07:47;3.20;;;1.80;;
33794;SDS011;51430;52.242;21.118;2023-05-10T14:10:14;5.80;;;2.00;;
33794;SDS011;51430;52.242;21.118;2023-05-10T14:12:40;3.00;;;1.80;;
33794;SDS011;51430;52.242;21.118;2023-05-10T14:15:07;4.10;;;1.80;;
33794;SDS011;51430;52.242;21.118;2023-05-10T14:17:36;5.40;;;1.90;;
33794;SDS011;51430;52.242;21.118;2023-05-10T14:20:02;6.50;;;2.20;;
33794;SDS011;51430;52.242;21.118;2023-05-10T14:22:29;4.50;;;1.90;;
33794;SDS011;51430;52.242;21.118;2023-05-10T14:24:56;2.90;;;1.70;;
33794;SDS011;51430;52.242;21.118;2023-05-10T14:27:22;6.40;;;2.20;;
33794;SDS011;51430;52.242;21.118;2023-05-10T14:29:48;7.10;;;2.10;;
33794;SDS011;51430;52.242;21.118;2023-05-10T14:32:15;3.70;;;2.00;;
33794;SDS011;51430;52.242;21.118;2023-05-10T14:34:41;4.60;;;2.00;;
33794;SDS011;51430;52.242;21.118;2023-05-10T14:37:10;2.60;;;1.70;;
33794;SDS011;51430;52.242;21.118;2023-05-10T14:39:37;5.20;;;2.30;;
33794;SDS011;51430;52.242;21.118;2023-05-10T14:42:03;4.20;;;2.10;;
33794;SDS011;51430;52.242;21.118;2023-05-10T14:44:30;5.10;;;2.00;;
33794;SDS011;51430;52.242;21.118;2023-05-10T14:46:57;4.20;;;2.00;;
33794;SDS011;51430;52.242;21.118;2023-05-10T14:49:24;5.50;;;2.10;;
33794;SDS011;51430;52.242;21.118;2023-05-10T14:51:51;8.00;;;2.20;;
33794;SDS011;51430;52.242;21.118;2023-05-10T14:54:18;4.30;;;1.80;;
33794;SDS011;51430;52.242;21.118;2023-05-10T14:56:44;4.60;;;1.90;;
33794;SDS011;51430;52.242;21.118;2023-05-10T14:59:11;3.70;;;2.00;;
33794;SDS011;51430;52.242;21.118;2023-05-10T15:01:38;12.60;;;3.10;;
33794;SDS011;51430;52.242;21.118;2023-05-10T15:04:07;5.60;;;2.10;;
33794;SDS011;51430;52.242;21.118;2023-05-10T15:06:34;4.50;;;2.00;;